createdAt,value
2023-08-10T00:00:41.187Z,12.67
2023-08-10T00:03:43.225Z,12.67
2023-08-10T00:06:45.512Z,12.66
2023-08-10T00:09:47.487Z,12.66
2023-08-10T00:12:49.245Z,12.67
2023-08-10T00:15:51.128Z,12.69
2023-08-10T00:18:53.046Z,12.70
2023-08-10T00:21:54.830Z,12.67
2023-08-10T00:24:56.710Z,12.66
2023-08-10T00:27:58.526Z,12.70
2023-08-10T00:31:02.776Z,12.75
2023-08-10T00:34:04.777Z,12.70
2023-08-10T00:37:06.774Z,12.63
2023-08-10T00:40:14.019Z,12.54
2023-08-10T00:43:17.183Z,12.46
2023-08-10T00:46:19.417Z,12.40
2023-08-10T00:49:21.430Z,12.33
2023-08-10T00:52:23.353Z,12.26
2023-08-10T00:55:28.632Z,12.19
2023-08-10T00:58:39.233Z,12.11
2023-08-10T01:01:44.365Z,12.05
2023-08-10T01:04:46.315Z,12.01
2023-08-10T01:08:01.686Z,11.99
2023-08-10T01:11:36.165Z,11.96
2023-08-10T01:15:16.924Z,11.90
2023-08-10T01:18:26.578Z,11.85
2023-08-10T01:21:50.036Z,11.80
2023-08-10T01:25:03.660Z,11.77
2023-08-10T01:28:06.653Z,11.73
2023-08-10T01:31:08.616Z,11.69
2023-08-10T01:34:10.469Z,11.65
2023-08-10T01:37:12.257Z,11.61
2023-08-10T01:40:15.021Z,11.58
2023-08-10T01:43:16.885Z,11.54
2023-08-10T01:46:23.219Z,11.51
2023-08-10T01:49:26.974Z,11.50
2023-08-10T01:52:34.736Z,11.46
2023-08-10T01:55:37.252Z,11.43
2023-08-10T01:58:39.064Z,11.41
2023-08-10T02:01:40.757Z,11.38
2023-08-10T02:04:42.476Z,11.37
2023-08-10T02:07:49.889Z,11.35
2023-08-10T02:10:51.957Z,11.36
2023-08-10T02:13:53.859Z,11.34
2023-08-10T02:16:55.771Z,11.36
2023-08-10T02:19:57.871Z,11.38
2023-08-10T02:22:59.704Z,11.34
2023-08-10T02:26:01.497Z,11.31
2023-08-10T02:29:03.405Z,11.32
2023-08-10T02:32:05.408Z,11.36
2023-08-10T02:35:07.932Z,11.37
2023-08-10T02:38:09.825Z,11.41
2023-08-10T02:41:11.630Z,11.39
2023-08-10T02:44:13.560Z,11.36
2023-08-10T02:47:15.228Z,11.34
2023-08-10T02:50:17.064Z,11.30
2023-08-10T02:53:18.923Z,11.33
2023-08-10T02:56:20.670Z,11.35
2023-08-10T02:59:22.473Z,11.35
2023-08-10T03:02:24.547Z,11.36
2023-08-10T03:05:26.720Z,11.35
2023-08-10T03:08:28.886Z,11.32
2023-08-10T03:11:32.181Z,11.34
2023-08-10T03:14:34.155Z,11.35
2023-08-10T03:17:36.823Z,11.38
2023-08-10T03:20:39.556Z,11.35
2023-08-10T03:23:41.580Z,11.32
2023-08-10T03:26:43.307Z,11.27
2023-08-10T03:29:45.427Z,11.22
2023-08-10T03:32:47.316Z,11.15
2023-08-10T03:35:49.314Z,11.10
2023-08-10T03:38:51.978Z,11.08
2023-08-10T03:41:54.567Z,11.11
2023-08-10T03:44:56.672Z,11.13
2023-08-10T03:47:58.819Z,11.19
2023-08-10T03:51:01.330Z,11.22
2023-08-10T03:54:03.407Z,11.27
2023-08-10T03:57:05.129Z,11.30
2023-08-10T04:00:08.190Z,11.32
2023-08-10T04:03:18.879Z,11.30
2023-08-10T04:06:20.666Z,11.27
2023-08-10T04:09:22.633Z,11.23
2023-08-10T04:12:24.569Z,11.28
2023-08-10T04:15:26.302Z,11.34
2023-08-10T04:18:28.019Z,11.34
2023-08-10T04:21:29.754Z,11.33
2023-08-10T04:24:31.454Z,11.28
2023-08-10T04:27:33.286Z,11.21
2023-08-10T04:30:35.175Z,11.13
2023-08-10T04:33:36.909Z,11.10
2023-08-10T04:36:38.744Z,11.09
2023-08-10T04:39:40.714Z,11.14
2023-08-10T04:42:42.542Z,11.20
2023-08-10T04:45:44.645Z,11.31
2023-08-10T04:48:46.527Z,11.45
2023-08-10T04:51:48.371Z,11.58
2023-08-10T04:54:50.639Z,11.67
2023-08-10T04:57:53.428Z,11.70
2023-08-10T05:00:55.161Z,11.72
2023-08-10T05:03:57.269Z,11.74
2023-08-10T05:06:58.945Z,11.76
2023-08-10T05:10:05.988Z,11.85
2023-08-10T05:13:07.897Z,12.02
2023-08-10T05:16:10.206Z,12.12
2023-08-10T05:19:12.086Z,12.13
2023-08-10T05:22:13.901Z,12.12
2023-08-10T05:25:17.828Z,12.05
2023-08-10T05:28:21.070Z,12.02
2023-08-10T05:31:23.319Z,12.00
2023-08-10T05:34:25.287Z,11.99
2023-08-10T05:37:26.975Z,12.02
2023-08-10T05:40:29.017Z,12.10
2023-08-10T05:43:30.798Z,12.28
2023-08-10T05:46:33.200Z,12.44
2023-08-10T05:49:35.005Z,12.49
2023-08-10T05:52:37.189Z,12.49
2023-08-10T05:55:39.280Z,12.42
2023-08-10T05:58:41.743Z,12.41
2023-08-10T06:01:44.737Z,12.40
2023-08-10T06:04:47.098Z,12.43
2023-08-10T06:07:49.135Z,12.51
2023-08-10T06:10:52.417Z,12.57
2023-08-10T06:13:54.589Z,12.61
2023-08-10T06:16:56.415Z,12.66
2023-08-10T06:19:59.688Z,12.70
2023-08-10T06:23:03.333Z,12.82
2023-08-10T06:26:06.426Z,12.90
2023-08-10T06:29:08.246Z,12.96
2023-08-10T06:32:10.364Z,13.02
2023-08-10T06:35:12.533Z,13.09
2023-08-10T06:38:15.003Z,13.21
2023-08-10T06:41:17.261Z,13.38
2023-08-10T06:44:19.096Z,13.58
2023-08-10T06:47:20.894Z,13.81
2023-08-10T06:50:22.852Z,14.02
2023-08-10T06:53:24.798Z,14.19
2023-08-10T06:56:26.686Z,14.39
2023-08-10T06:59:59.675Z,14.50
2023-08-10T07:02:51.642Z,14.48
2023-08-10T07:05:53.497Z,14.40
2023-08-10T07:08:55.400Z,14.26
2023-08-10T07:11:57.199Z,14.21
2023-08-10T07:15:00.021Z,14.19
2023-08-10T07:18:05.302Z,14.24
2023-08-10T07:21:08.059Z,14.27
2023-08-10T07:24:09.937Z,14.28
2023-08-10T07:27:11.970Z,14.41
2023-08-10T07:30:16.921Z,14.68
2023-08-10T07:33:18.823Z,15.00
2023-08-10T07:36:20.623Z,15.27
2023-08-10T07:39:22.487Z,15.62
2023-08-10T07:42:24.607Z,16.00
2023-08-10T07:45:26.457Z,16.40
2023-08-10T07:48:28.616Z,16.90
2023-08-10T07:51:30.690Z,17.45
2023-08-10T07:54:32.563Z,17.71
2023-08-10T07:57:35.515Z,17.61
2023-08-10T08:00:39.615Z,17.29
2023-08-10T08:03:42.386Z,16.88
2023-08-10T08:06:44.587Z,16.65
2023-08-10T08:09:46.489Z,16.53
2023-08-10T08:12:48.822Z,16.52
2023-08-10T08:15:50.708Z,16.40
2023-08-10T08:18:56.349Z,16.27
2023-08-10T08:22:04.068Z,16.14
2023-08-10T08:25:20.732Z,16.18
2023-08-10T08:28:27.601Z,16.47
2023-08-10T08:31:34.823Z,16.98
2023-08-10T08:34:52.275Z,17.34
2023-08-10T08:38:00.242Z,17.47
2023-08-10T08:41:26.455Z,17.32
2023-08-10T08:45:01.452Z,17.03
2023-08-10T08:47:55.608Z,16.82
2023-08-10T08:51:03.265Z,16.54
2023-08-10T08:54:24.493Z,16.27
2023-08-10T08:57:41.337Z,16.30
2023-08-10T09:00:53.424Z,16.64
2023-08-10T09:04:15.002Z,17.17
2023-08-10T09:07:18.199Z,17.80
2023-08-10T09:10:30.748Z,18.33
2023-08-10T09:13:47.047Z,18.20
2023-08-10T09:16:53.523Z,17.98
2023-08-10T09:20:17.090Z,17.97
2023-08-10T09:23:36.475Z,17.87
2023-08-10T09:26:56.339Z,17.77
2023-08-10T09:30:33.439Z,17.82
2023-08-10T09:33:43.450Z,18.22
2023-08-10T09:37:04.774Z,18.33
2023-08-10T09:40:43.126Z,18.77
2023-08-10T09:43:59.485Z,18.86
2023-08-10T09:47:30.211Z,18.70
2023-08-10T09:50:37.907Z,18.69
2023-08-10T09:53:44.916Z,18.79
2023-08-10T09:57:00.706Z,19.15
2023-08-10T10:00:31.095Z,18.83
2023-08-10T10:03:34.707Z,18.42
2023-08-10T10:06:51.534Z,17.92
2023-08-10T10:10:25.578Z,17.85
2023-08-10T10:13:33.741Z,18.10
2023-08-10T10:16:38.508Z,18.12
2023-08-10T10:19:41.546Z,18.22
2023-08-10T10:22:50.099Z,18.59
2023-08-10T10:26:12.856Z,19.02
2023-08-10T10:29:17.583Z,19.46
2023-08-10T10:32:25.934Z,19.21
2023-08-10T10:36:17.051Z,18.94
2023-08-10T10:39:26.080Z,18.65
2023-08-10T10:43:10.291Z,18.56
2023-08-10T10:46:45.287Z,18.42
2023-08-10T10:49:55.794Z,18.27
2023-08-10T10:53:29.654Z,18.32
2023-08-10T10:57:01.390Z,18.62
2023-08-10T11:00:13.335Z,18.99
2023-08-10T11:03:21.200Z,19.24
2023-08-10T11:06:26.758Z,19.41
2023-08-10T11:09:30.418Z,19.67
2023-08-10T11:12:32.315Z,19.72
2023-08-10T11:15:35.259Z,19.61
2023-08-10T11:18:38.609Z,19.23
2023-08-10T11:21:43.580Z,18.82
2023-08-10T11:24:46.822Z,18.82
2023-08-10T11:27:50.715Z,19.11
2023-08-10T11:30:53.231Z,19.57
2023-08-10T11:33:54.990Z,19.78
2023-08-10T11:36:56.982Z,19.57
2023-08-10T11:40:17.759Z,19.75
2023-08-10T11:43:26.846Z,19.83
2023-08-10T11:46:29.100Z,19.95
2023-08-10T11:49:32.519Z,20.08
2023-08-10T11:52:34.848Z,20.25
2023-08-10T11:55:42.797Z,20.46
2023-08-10T11:58:44.870Z,20.60
2023-08-10T12:01:48.377Z,20.86
2023-08-10T12:05:00.713Z,21.07
2023-08-10T12:08:04.745Z,21.32
2023-08-10T12:11:16.654Z,21.76
2023-08-10T12:14:27.956Z,21.76
2023-08-10T12:17:30.104Z,21.32
2023-08-10T12:20:32.664Z,20.95
2023-08-10T12:23:34.735Z,20.95
2023-08-10T12:26:36.604Z,20.78
2023-08-10T12:29:38.612Z,21.06
2023-08-10T12:32:43.687Z,21.37
2023-08-10T12:35:45.536Z,21.62
2023-08-10T12:38:47.548Z,21.77
2023-08-10T12:41:49.496Z,21.67
2023-08-10T12:44:52.215Z,21.77
2023-08-10T12:47:56.363Z,21.89
2023-08-10T12:50:58.387Z,22.01
2023-08-10T12:54:00.586Z,22.12
2023-08-10T12:57:02.441Z,22.07
2023-08-10T13:00:15.569Z,21.79
2023-08-10T13:03:17.709Z,21.98
2023-08-10T13:06:19.617Z,22.11
2023-08-10T13:09:23.394Z,21.92
2023-08-10T13:12:25.290Z,22.04
2023-08-10T13:15:27.196Z,22.29
2023-08-10T13:18:29.040Z,22.50
2023-08-10T13:21:31.171Z,22.89
2023-08-10T13:24:35.215Z,23.21
2023-08-10T13:27:37.182Z,23.38
2023-08-10T13:30:42.314Z,23.39
2023-08-10T13:33:44.101Z,23.34
2023-08-10T13:36:45.817Z,23.51
2023-08-10T13:39:47.808Z,23.68
2023-08-10T13:42:50.851Z,23.74
2023-08-10T13:45:52.814Z,23.48
2023-08-10T13:48:56.125Z,23.51
2023-08-10T13:51:59.256Z,23.79
2023-08-10T13:55:04.643Z,24.12
2023-08-10T13:58:06.781Z,24.17
2023-08-10T14:01:08.692Z,24.22
2023-08-10T14:04:12.396Z,24.24
2023-08-10T14:07:14.065Z,24.36
2023-08-10T14:10:16.710Z,24.54
2023-08-10T14:13:18.742Z,24.69
2023-08-10T14:16:20.814Z,24.86
2023-08-10T14:19:28.774Z,24.62
2023-08-10T14:22:30.525Z,24.81
2023-08-10T14:25:32.297Z,25.05
2023-08-10T14:28:34.195Z,25.17
2023-08-10T14:31:36.093Z,24.99
2023-08-10T14:34:38.236Z,24.86
2023-08-10T14:37:40.258Z,24.89
2023-08-10T14:40:42.384Z,25.00
2023-08-10T14:43:44.459Z,25.00
2023-08-10T14:46:46.432Z,25.09
2023-08-10T14:49:48.427Z,25.23
2023-08-10T14:52:50.165Z,25.36
2023-08-10T14:55:52.064Z,25.33
2023-08-10T14:58:53.941Z,25.49
2023-08-10T15:01:57.240Z,25.41
2023-08-10T15:05:00.566Z,25.29
2023-08-10T15:08:07.231Z,24.63
2023-08-10T15:11:12.426Z,24.66
2023-08-10T15:14:14.368Z,24.94
2023-08-10T15:17:16.424Z,25.25
2023-08-10T15:20:21.960Z,25.35
2023-08-10T15:23:42.316Z,25.26
2023-08-10T15:26:44.978Z,25.31
2023-08-10T15:29:46.882Z,25.42
2023-08-10T15:32:49.204Z,25.56
2023-08-10T15:35:51.221Z,25.43
2023-08-10T15:38:53.069Z,25.36
2023-08-10T15:41:57.330Z,25.29
2023-08-10T15:44:59.535Z,25.00
2023-08-10T15:48:01.860Z,25.24
2023-08-10T15:51:04.021Z,25.16
2023-08-10T15:54:07.587Z,24.75
2023-08-10T15:57:09.674Z,24.16
2023-08-10T16:00:13.382Z,23.63
2023-08-10T16:03:16.510Z,23.11
2023-08-10T16:06:18.656Z,22.84
2023-08-10T16:09:26.321Z,22.51
2023-08-10T16:12:33.786Z,22.68
2023-08-10T16:15:44.659Z,23.28
2023-08-10T16:18:49.088Z,23.77
2023-08-10T16:21:51.260Z,23.95
2023-08-10T16:24:56.449Z,24.00
2023-08-10T16:27:58.478Z,23.61
2023-08-10T16:31:02.733Z,23.30
2023-08-10T16:34:06.801Z,22.99
2023-08-10T16:37:09.157Z,22.70
2023-08-10T16:40:12.992Z,22.57
2023-08-10T16:43:16.323Z,22.47
2023-08-10T16:46:19.988Z,22.45
2023-08-10T16:49:23.292Z,22.26
2023-08-10T16:52:38.950Z,22.27
2023-08-10T16:55:43.764Z,22.16
2023-08-10T16:58:47.991Z,22.02
2023-08-10T17:01:52.701Z,21.93
2023-08-10T17:04:57.548Z,21.90
2023-08-10T17:08:00.669Z,21.83
2023-08-10T17:11:04.315Z,21.67
2023-08-10T17:14:08.144Z,21.54
2023-08-10T17:17:10.762Z,21.42
2023-08-10T17:20:13.905Z,21.37
2023-08-10T17:23:16.232Z,21.22
2023-08-10T17:26:18.246Z,21.13
2023-08-10T17:29:21.889Z,21.02
2023-08-10T17:32:24.063Z,20.93
2023-08-10T17:35:26.553Z,20.88
2023-08-10T17:38:28.447Z,20.80
2023-08-10T17:41:30.185Z,20.77
2023-08-10T17:44:32.395Z,20.64
2023-08-10T17:47:38.781Z,20.61
2023-08-10T17:50:41.145Z,20.55
2023-08-10T17:53:43.209Z,20.41
2023-08-10T17:56:45.413Z,20.27
2023-08-10T17:59:47.206Z,20.25
2023-08-10T18:02:52.317Z,20.18
2023-08-10T18:05:54.641Z,20.20
2023-08-10T18:08:57.330Z,20.13
2023-08-10T18:12:02.416Z,20.12
2023-08-10T18:15:11.085Z,20.06
2023-08-10T18:18:17.264Z,19.96
2023-08-10T18:21:19.470Z,19.81
2023-08-10T18:24:24.163Z,19.63
2023-08-10T18:27:26.537Z,19.49
2023-08-10T18:30:29.390Z,19.27
2023-08-10T18:33:31.853Z,19.05
2023-08-10T18:36:33.920Z,18.87
2023-08-10T18:39:38.281Z,18.69
2023-08-10T18:42:40.244Z,18.54
2023-08-10T18:45:42.297Z,18.35
2023-08-10T18:48:44.346Z,18.19
2023-08-10T18:51:50.813Z,18.08
2023-08-10T18:54:52.972Z,17.95
2023-08-10T18:57:58.304Z,17.80
2023-08-10T19:01:00.341Z,17.67
2023-08-10T19:04:02.913Z,17.57
2023-08-10T19:07:10.555Z,17.48
2023-08-10T19:10:12.501Z,17.46
2023-08-10T19:13:17.751Z,17.37
2023-08-10T19:16:20.293Z,17.28
2023-08-10T19:19:22.300Z,17.19
2023-08-10T19:22:24.292Z,17.12
2023-08-10T19:25:26.307Z,17.08
2023-08-10T19:28:30.920Z,17.01
2023-08-10T19:31:33.008Z,16.98
2023-08-10T19:34:36.609Z,16.97
2023-08-10T19:37:41.008Z,17.03
2023-08-10T19:41:04.680Z,17.09
2023-08-10T19:44:20.721Z,17.11
2023-08-10T19:59:42.364Z,17.15
2023-08-10T20:02:55.231Z,17.14
2023-08-10T20:06:01.654Z,17.13
2023-08-10T20:09:05.080Z,17.15
2023-08-10T20:12:11.207Z,17.14
2023-08-10T20:15:13.222Z,17.12
2023-08-10T20:18:15.442Z,17.12
2023-08-10T20:21:23.675Z,17.10
2023-08-10T20:24:28.722Z,17.09
2023-08-10T20:27:33.692Z,17.10
2023-08-10T20:30:41.248Z,17.08
2023-08-10T20:33:51.512Z,17.08
2023-08-10T20:37:17.857Z,17.07
2023-08-10T20:40:43.907Z,17.06
2023-08-10T20:43:55.307Z,17.08
2023-08-10T20:46:59.389Z,17.10
2023-08-10T20:50:16.086Z,17.11
2023-08-10T20:53:22.421Z,17.14
2023-08-10T20:56:26.810Z,17.13
2023-08-10T20:59:35.165Z,17.13
2023-08-10T21:02:37.474Z,17.15
2023-08-10T21:05:40.221Z,17.18
2023-08-10T21:08:45.380Z,17.20
2023-08-10T21:11:47.388Z,17.21
2023-08-10T21:14:49.317Z,17.24
2023-08-10T21:17:51.198Z,17.22
2023-08-10T21:20:53.015Z,17.19
2023-08-10T21:23:54.838Z,17.17
2023-08-10T21:26:56.713Z,17.13
2023-08-10T21:30:00.615Z,17.11
2023-08-10T21:33:02.588Z,17.10
2023-08-10T21:36:04.897Z,17.10
2023-08-10T21:39:06.842Z,17.08
2023-08-10T21:42:08.967Z,17.10
2023-08-10T21:45:11.195Z,17.09
2023-08-10T21:48:13.233Z,17.06
2023-08-10T21:51:15.072Z,17.06
2023-08-10T21:54:17.209Z,17.03
2023-08-10T21:57:19.487Z,17.02
2023-08-10T22:00:24.163Z,17.03
2023-08-10T22:06:55.527Z,17.01
2023-08-10T22:10:01.986Z,17.01
2023-08-10T22:13:05.342Z,17.01
2023-08-10T22:16:07.329Z,17.01
2023-08-10T22:19:09.314Z,17.03
2023-08-10T22:22:13.550Z,17.03
2023-08-10T22:25:15.562Z,17.02
2023-08-10T22:28:17.765Z,17.03
2023-08-10T22:31:19.891Z,17.01
2023-08-10T22:34:21.862Z,17.00
2023-08-10T22:37:24.365Z,16.99
2023-08-10T22:40:26.652Z,17.01
2023-08-10T22:43:28.647Z,17.00
2023-08-10T22:46:30.919Z,17.02
2023-08-10T22:49:32.965Z,17.00
2023-08-10T22:52:34.980Z,17.01
2023-08-10T22:55:36.866Z,17.01
2023-08-10T22:58:39.896Z,17.03
2023-08-10T23:01:41.810Z,17.01
2023-08-10T23:04:44.715Z,17.00
2023-08-10T23:07:46.492Z,16.98
2023-08-10T23:10:51.187Z,16.98
2023-08-10T23:13:53.318Z,16.97
2023-08-10T23:16:55.319Z,16.97
2023-08-10T23:19:58.471Z,16.95
2023-08-10T23:23:00.291Z,16.93
2023-08-10T23:26:02.278Z,16.91
2023-08-10T23:29:05.702Z,16.90
2023-08-10T23:32:08.353Z,16.91
2023-08-10T23:35:11.399Z,16.89
2023-08-10T23:38:15.550Z,16.86
2023-08-10T23:41:18.146Z,16.86
2023-08-10T23:44:22.454Z,16.89
2023-08-10T23:47:24.664Z,16.87
2023-08-10T23:50:27.056Z,16.87
2023-08-10T23:53:28.907Z,16.88
2023-08-10T23:56:30.916Z,16.89
2023-08-10T23:59:32.819Z,16.89
